createdAt,value
2023-12-17T00:00:13.859Z,68.30
2023-12-17T00:01:46.184Z,68.40
2023-12-17T00:03:20.852Z,68.40
2023-12-17T00:04:54.529Z,68.40
2023-12-17T00:06:27.071Z,68.40
2023-12-17T00:08:01.736Z,68.40
2023-12-17T00:09:33.979Z,68.40
2023-12-17T00:11:07.560Z,69.20
2023-12-17T00:12:39.824Z,68.40
2023-12-17T00:14:14.556Z,68.40
2023-12-17T00:15:47.134Z,68.40
2023-12-17T00:17:21.448Z,68.40
2023-12-17T00:18:54.176Z,68.40
2023-12-17T00:20:27.407Z,68.40
2023-12-17T00:21:59.796Z,68.40
2023-12-17T00:23:34.306Z,68.40
2023-12-17T00:25:07.953Z,68.40
2023-12-17T00:26:41.208Z,68.40
2023-12-17T00:28:13.571Z,68.30
2023-12-17T00:29:47.227Z,68.30
2023-12-17T00:31:20.514Z,68.30
2023-12-17T00:32:53.473Z,68.30
2023-12-17T00:34:26.974Z,68.20
2023-12-17T00:35:59.417Z,69.00
2023-12-17T00:37:32.717Z,68.30
2023-12-17T00:39:06.415Z,68.20
2023-12-17T00:40:39.853Z,68.20
2023-12-17T00:42:12.590Z,68.30
2023-12-17T00:43:45.869Z,69.10
2023-12-17T00:45:18.077Z,68.30
2023-12-17T00:46:51.347Z,68.40
2023-12-17T00:48:23.725Z,68.40
2023-12-17T00:49:57.298Z,68.40
2023-12-17T00:51:29.608Z,68.40
2023-12-17T00:53:02.894Z,68.40
2023-12-17T00:54:36.524Z,68.40
2023-12-17T00:56:10.613Z,68.40
2023-12-17T00:57:42.942Z,68.50
2023-12-17T00:59:16.227Z,68.40
2023-12-17T01:00:54.744Z,68.40
2023-12-17T01:02:29.123Z,68.50
2023-12-17T01:04:02.356Z,68.40
2023-12-17T01:05:34.645Z,68.40
2023-12-17T01:07:07.856Z,68.40
2023-12-17T01:08:40.134Z,68.50
2023-12-17T01:10:14.755Z,68.70
2023-12-17T01:11:47.118Z,68.70
2023-12-17T01:13:20.352Z,69.60
2023-12-17T01:14:52.735Z,68.80
2023-12-17T01:16:25.972Z,68.80
2023-12-17T01:17:58.296Z,68.80
2023-12-17T01:19:32.333Z,68.70
2023-12-17T01:21:06.929Z,68.80
2023-12-17T01:22:40.109Z,68.80
2023-12-17T01:24:12.351Z,68.70
2023-12-17T01:25:46.889Z,68.80
2023-12-17T01:31:21.491Z,69.20
2023-12-17T01:32:55.263Z,68.90
2023-12-17T01:34:28.548Z,68.90
2023-12-17T01:36:01.893Z,68.90
2023-12-17T01:37:34.136Z,68.90
2023-12-17T01:39:07.408Z,69.00
2023-12-17T01:40:40.567Z,68.90
2023-12-17T01:42:15.395Z,68.90
2023-12-17T01:43:47.812Z,68.90
2023-12-17T01:45:21.423Z,68.90
2023-12-17T01:46:53.651Z,68.90
2023-12-17T01:48:29.242Z,69.00
2023-12-17T01:50:01.781Z,69.10
2023-12-17T01:51:39.091Z,69.10
2023-12-17T01:53:12.174Z,69.00
2023-12-17T01:54:45.399Z,69.00
2023-12-17T01:56:18.259Z,68.80
2023-12-17T01:57:53.228Z,68.90
2023-12-17T01:59:25.442Z,68.90
2023-12-17T02:01:00.846Z,68.90
2023-12-17T02:02:33.191Z,69.00
2023-12-17T02:04:07.774Z,68.70
2023-12-17T02:05:40.427Z,68.70
2023-12-17T02:07:14.242Z,68.70
2023-12-17T02:08:46.917Z,68.70
2023-12-17T02:10:20.355Z,68.80
2023-12-17T02:11:52.709Z,68.80
2023-12-17T02:13:27.429Z,68.80
2023-12-17T02:14:59.758Z,68.90
2023-12-17T02:16:33.047Z,68.90
2023-12-17T02:18:05.935Z,69.80
2023-12-17T02:19:40.590Z,69.80
2023-12-17T02:21:16.717Z,68.90
2023-12-17T02:22:54.269Z,69.10
2023-12-17T02:24:28.875Z,69.00
2023-12-17T02:26:01.117Z,68.80
2023-12-17T02:27:34.634Z,69.00
2023-12-17T02:29:06.972Z,69.00
2023-12-17T02:30:40.228Z,68.90
2023-12-17T02:32:12.624Z,68.90
2023-12-17T02:33:47.381Z,69.70
2023-12-17T02:35:19.672Z,68.80
2023-12-17T02:36:52.879Z,68.90
2023-12-17T02:38:25.383Z,68.70
2023-12-17T02:39:59.948Z,68.60
2023-12-17T02:41:32.193Z,68.60
2023-12-17T02:43:05.699Z,68.60
2023-12-17T02:44:38.454Z,68.60
2023-12-17T02:46:11.611Z,68.70
2023-12-17T02:47:44.258Z,68.60
2023-12-17T02:49:17.852Z,68.60
2023-12-17T02:50:51.150Z,68.60
2023-12-17T02:52:23.500Z,68.60
2023-12-17T02:53:56.719Z,68.50
2023-12-17T02:55:30.319Z,68.50
2023-12-17T02:57:03.665Z,68.60
2023-12-17T02:58:35.920Z,68.60
2023-12-17T03:00:10.941Z,68.60
2023-12-17T03:01:44.502Z,68.80
2023-12-17T03:03:17.970Z,68.90
2023-12-17T03:04:50.335Z,68.90
2023-12-17T03:06:23.701Z,68.90
2023-12-17T03:07:55.976Z,68.90
2023-12-17T03:09:29.591Z,68.90
2023-12-17T03:11:03.246Z,69.00
2023-12-17T03:12:36.522Z,69.10
2023-12-17T03:14:09.231Z,69.10
2023-12-17T03:15:42.699Z,69.30
2023-12-17T03:17:14.896Z,69.30
2023-12-17T03:18:48.537Z,69.30
2023-12-17T03:20:21.828Z,69.40
2023-12-17T03:21:54.038Z,69.50
2023-12-17T03:23:27.509Z,69.40
2023-12-17T03:25:00.007Z,69.50
2023-12-17T03:26:34.668Z,69.50
2023-12-17T03:28:07.004Z,69.50
2023-12-17T03:29:40.191Z,69.50
2023-12-17T03:31:14.516Z,69.50
2023-12-17T03:32:48.004Z,69.60
2023-12-17T03:34:20.577Z,69.60
2023-12-17T03:35:53.908Z,69.60
2023-12-17T03:37:27.147Z,69.70
2023-12-17T03:38:59.451Z,69.70
2023-12-17T03:40:32.735Z,69.60
2023-12-17T03:42:06.696Z,69.60
2023-12-17T03:43:40.003Z,69.60
2023-12-17T03:45:12.458Z,69.70
2023-12-17T03:46:45.745Z,69.60
2023-12-17T03:48:18.335Z,69.60
2023-12-17T03:49:51.699Z,69.60
2023-12-17T03:51:23.997Z,69.60
2023-12-17T03:52:57.564Z,69.50
2023-12-17T03:54:29.821Z,69.60
2023-12-17T03:56:03.244Z,69.60
2023-12-17T03:57:37.229Z,69.50
2023-12-17T03:59:10.447Z,69.50
2023-12-17T04:00:42.642Z,69.40
2023-12-17T04:02:15.913Z,69.40
2023-12-17T04:03:48.252Z,69.30
2023-12-17T04:05:21.588Z,69.40
2023-12-17T04:06:53.808Z,69.40
2023-12-17T04:08:27.148Z,69.50
2023-12-17T04:10:00.807Z,69.50
2023-12-17T04:11:34.085Z,69.60
2023-12-17T04:13:07.711Z,69.60
2023-12-17T04:14:41.190Z,69.50
2023-12-17T04:16:13.487Z,69.90
2023-12-17T04:17:46.978Z,69.60
2023-12-17T04:19:19.521Z,69.60
2023-12-17T04:20:52.958Z,69.60
2023-12-17T04:22:26.185Z,69.20
2023-12-17T04:23:58.410Z,69.60
2023-12-17T04:25:31.617Z,69.60
2023-12-17T04:27:04.830Z,69.50
2023-12-17T04:28:39.424Z,69.60
2023-12-17T04:30:13.065Z,69.60
2023-12-17T04:31:46.318Z,69.50
2023-12-17T04:33:18.712Z,69.40
2023-12-17T04:34:56.488Z,69.40
2023-12-17T04:36:29.826Z,69.50
2023-12-17T04:38:02.144Z,69.50
2023-12-17T04:39:35.468Z,69.60
2023-12-17T04:41:07.646Z,69.50
2023-12-17T04:42:41.211Z,69.60
2023-12-17T04:44:15.805Z,69.60
2023-12-17T04:45:49.170Z,69.60
2023-12-17T04:47:21.477Z,69.60
2023-12-17T04:48:54.957Z,69.60
2023-12-17T04:50:27.379Z,69.60
2023-12-17T04:52:00.651Z,69.70
2023-12-17T04:53:32.917Z,69.60
2023-12-17T04:55:07.751Z,69.60
2023-12-17T04:56:39.944Z,69.60
2023-12-17T04:58:13.177Z,69.40
2023-12-17T04:59:46.837Z,69.40
2023-12-17T05:01:20.166Z,69.40
2023-12-17T05:02:52.462Z,69.50
2023-12-17T05:04:25.889Z,69.60
2023-12-17T05:05:58.395Z,69.70
2023-12-17T05:07:31.916Z,69.80
2023-12-17T05:09:04.534Z,69.80
2023-12-17T05:10:37.780Z,69.80
2023-12-17T05:12:10.142Z,69.80
2023-12-17T05:13:43.762Z,69.70
2023-12-17T05:15:17.391Z,69.80
2023-12-17T05:16:50.723Z,69.70
2023-12-17T05:18:23.132Z,69.60
2023-12-17T05:19:56.397Z,69.50
2023-12-17T05:21:28.796Z,69.50
2023-12-17T05:23:03.510Z,69.60
2023-12-17T05:24:35.761Z,69.50
2023-12-17T05:26:09.525Z,69.70
2023-12-17T05:27:41.905Z,69.60
2023-12-17T05:29:15.250Z,69.80
2023-12-17T05:30:49.919Z,69.90
2023-12-17T05:32:22.247Z,69.80
2023-12-17T05:33:55.495Z,69.70
2023-12-17T05:35:27.865Z,69.90
2023-12-17T05:37:01.214Z,69.80
2023-12-17T05:38:33.742Z,69.90
2023-12-17T05:40:09.349Z,69.80
2023-12-17T05:41:41.763Z,69.80
2023-12-17T05:43:15.009Z,69.70
2023-12-17T05:44:48.395Z,69.80
2023-12-17T05:46:22.069Z,69.70
2023-12-17T05:47:55.447Z,69.80
2023-12-17T05:49:27.934Z,69.80
2023-12-17T05:51:01.501Z,69.70
2023-12-17T05:52:33.837Z,69.70
2023-12-17T05:54:09.167Z,69.70
2023-12-17T05:55:41.483Z,69.60
2023-12-17T05:57:14.894Z,69.60
2023-12-17T05:58:47.165Z,69.50
2023-12-17T06:00:21.421Z,69.50
2023-12-17T06:01:55.042Z,69.50
2023-12-17T06:03:28.294Z,69.50
2023-12-17T06:05:03.542Z,69.40
2023-12-17T06:06:42.151Z,69.50
2023-12-17T06:08:14.493Z,69.40
2023-12-17T06:09:47.677Z,69.40
2023-12-17T06:11:20.137Z,69.70
2023-12-17T06:12:53.400Z,69.40
2023-12-17T06:14:25.977Z,69.50
2023-12-17T06:15:59.326Z,69.50
2023-12-17T06:17:32.930Z,69.40
2023-12-17T06:19:06.772Z,69.40
2023-12-17T06:20:40.164Z,69.40
2023-12-17T06:22:17.149Z,69.50
2023-12-17T06:23:49.689Z,69.50
2023-12-17T06:25:23.225Z,69.50
2023-12-17T06:26:55.733Z,69.40
2023-12-17T06:28:28.973Z,69.50
2023-12-17T06:30:02.234Z,69.40
2023-12-17T06:31:34.771Z,69.40
2023-12-17T06:33:09.388Z,69.40
2023-12-17T06:34:43.154Z,69.40
2023-12-17T06:36:17.321Z,69.40
2023-12-17T06:37:49.814Z,69.40
2023-12-17T06:39:23.053Z,69.30
2023-12-17T06:40:55.915Z,69.20
2023-12-17T06:42:29.143Z,69.10
2023-12-17T06:44:01.513Z,69.20
2023-12-17T06:45:35.654Z,69.20
2023-12-17T06:47:17.945Z,69.10
2023-12-17T06:48:57.497Z,69.10
2023-12-17T06:50:29.768Z,69.10
2023-12-17T06:52:02.966Z,69.00
2023-12-17T06:53:35.180Z,69.20
2023-12-17T06:55:09.030Z,69.20
2023-12-17T06:56:43.194Z,69.20
2023-12-17T06:58:16.479Z,69.20
2023-12-17T06:59:49.656Z,69.20
2023-12-17T07:01:23.040Z,69.20
2023-12-17T07:02:55.419Z,68.90
2023-12-17T07:04:30.005Z,69.00
2023-12-17T07:06:03.028Z,68.90
2023-12-17T07:07:36.416Z,69.00
2023-12-17T07:09:09.020Z,68.90
2023-12-17T07:10:42.280Z,69.00
2023-12-17T07:12:14.607Z,68.80
2023-12-17T07:13:47.958Z,68.80
2023-12-17T07:15:20.229Z,68.70
2023-12-17T07:16:56.637Z,68.70
2023-12-17T07:18:29.881Z,68.70
2023-12-17T07:20:05.387Z,68.70
2023-12-17T07:21:37.694Z,68.70
2023-12-17T07:23:10.996Z,68.60
2023-12-17T07:24:43.324Z,68.60
2023-12-17T07:26:16.661Z,68.70
2023-12-17T07:27:52.314Z,68.70
2023-12-17T07:29:26.439Z,68.60
2023-12-17T07:30:59.670Z,68.60
2023-12-17T07:32:33.057Z,68.50
2023-12-17T07:34:06.465Z,68.70
2023-12-17T07:35:40.105Z,68.60
2023-12-17T07:37:13.575Z,68.60
2023-12-17T07:38:45.837Z,68.60
2023-12-17T07:40:19.093Z,68.50
2023-12-17T07:41:52.711Z,68.40
2023-12-17T07:43:25.889Z,68.40
2023-12-17T07:44:58.070Z,68.50
2023-12-17T07:46:31.564Z,68.30
2023-12-17T07:48:04.240Z,68.50
2023-12-17T07:49:37.629Z,68.50
2023-12-17T07:51:11.172Z,68.30
2023-12-17T07:52:44.621Z,68.20
2023-12-17T07:54:17.837Z,68.20
2023-12-17T07:55:51.775Z,68.10
2023-12-17T07:57:24.124Z,68.10
2023-12-17T07:58:57.444Z,68.00
2023-12-17T08:00:29.739Z,68.00
2023-12-17T08:02:02.995Z,68.00
2023-12-17T08:03:35.459Z,68.00
2023-12-17T08:05:09.775Z,68.00
2023-12-17T08:06:43.902Z,68.00
2023-12-17T08:08:17.327Z,68.00
2023-12-17T08:09:49.757Z,68.80
2023-12-17T08:11:23.266Z,68.00
2023-12-17T08:12:56.448Z,67.90
2023-12-17T08:14:30.177Z,68.00
2023-12-17T08:16:02.406Z,68.00
2023-12-17T08:17:35.701Z,68.00
2023-12-17T08:19:08.113Z,68.00
2023-12-17T08:20:41.412Z,68.00
2023-12-17T08:22:15.128Z,68.10
2023-12-17T08:23:48.642Z,68.00
2023-12-17T08:25:20.863Z,68.00
2023-12-17T08:26:56.054Z,68.50
2023-12-17T08:28:29.433Z,67.90
2023-12-17T08:30:02.158Z,68.00
2023-12-17T08:31:36.550Z,68.00
2023-12-17T08:33:08.971Z,68.00
2023-12-17T08:34:42.245Z,68.00
2023-12-17T08:36:15.469Z,68.00
2023-12-17T08:37:49.099Z,68.00
2023-12-17T08:39:24.448Z,68.00
2023-12-17T08:40:57.015Z,68.00
2023-12-17T08:42:30.309Z,68.00
2023-12-17T08:44:02.597Z,68.00
2023-12-17T08:45:37.222Z,68.00
2023-12-17T08:47:09.730Z,68.10
2023-12-17T08:48:43.084Z,67.90
2023-12-17T08:50:15.606Z,67.90
2023-12-17T08:51:48.854Z,68.00
2023-12-17T08:53:24.262Z,67.90
2023-12-17T08:54:57.718Z,68.00
2023-12-17T08:56:29.990Z,68.00
2023-12-17T08:58:03.254Z,68.00
2023-12-17T08:59:35.520Z,68.00
2023-12-17T09:01:09.066Z,68.00
2023-12-17T09:02:41.403Z,68.00
2023-12-17T09:04:14.800Z,68.00
2023-12-17T09:05:47.075Z,68.10
2023-12-17T09:07:20.701Z,68.00
2023-12-17T09:08:54.401Z,68.10
2023-12-17T09:10:27.615Z,68.00
2023-12-17T09:12:00.020Z,67.80
2023-12-17T09:13:33.301Z,67.90
2023-12-17T09:15:06.957Z,67.90
2023-12-17T09:16:40.467Z,67.90
2023-12-17T09:18:12.798Z,67.90
2023-12-17T09:19:46.270Z,67.80
2023-12-17T09:21:19.564Z,67.70
2023-12-17T09:22:53.119Z,67.70
2023-12-17T09:24:27.939Z,67.70
2023-12-17T09:26:01.896Z,67.60
2023-12-17T09:27:35.206Z,67.70
2023-12-17T09:29:08.723Z,67.50
2023-12-17T09:30:41.018Z,67.60
2023-12-17T09:32:14.559Z,67.50
2023-12-17T09:33:47.329Z,67.60
2023-12-17T09:35:21.783Z,67.70
2023-12-17T09:36:54.966Z,67.80
2023-12-17T09:38:28.196Z,67.80
2023-12-17T09:40:03.808Z,67.60
2023-12-17T09:41:37.160Z,67.60
2023-12-17T09:43:11.663Z,67.60
2023-12-17T09:44:45.027Z,67.60
2023-12-17T09:46:17.249Z,67.60
2023-12-17T09:47:50.616Z,67.60
2023-12-17T09:49:24.009Z,67.70
2023-12-17T09:50:57.539Z,67.60
2023-12-17T09:52:33.053Z,67.60
2023-12-17T09:54:07.484Z,67.80
2023-12-17T09:55:41.367Z,67.80
2023-12-17T09:57:15.383Z,68.00
2023-12-17T09:58:48.077Z,67.90
2023-12-17T10:00:21.614Z,67.90
2023-12-17T10:01:54.210Z,67.90
2023-12-17T10:03:27.646Z,67.90
2023-12-17T10:04:59.920Z,68.00
2023-12-17T10:06:35.986Z,67.90
2023-12-17T10:08:08.431Z,68.10
2023-12-17T10:09:41.600Z,67.90
2023-12-17T10:11:17.022Z,68.00
2023-12-17T10:12:52.129Z,68.90
2023-12-17T10:14:29.185Z,68.10
2023-12-17T10:16:02.701Z,68.20
2023-12-17T10:17:34.907Z,68.10
2023-12-17T10:19:10.716Z,68.20
2023-12-17T10:20:43.055Z,68.40
2023-12-17T10:22:16.213Z,68.40
2023-12-17T10:23:49.326Z,68.40
2023-12-17T10:25:27.783Z,68.50
2023-12-17T10:27:17.241Z,68.50
2023-12-17T10:28:53.143Z,68.50
2023-12-17T10:30:30.662Z,68.60
2023-12-17T10:32:04.030Z,68.50
2023-12-17T10:33:44.473Z,68.50
2023-12-17T10:35:17.837Z,68.50
2023-12-17T10:36:53.114Z,68.50
2023-12-17T10:38:25.732Z,68.50
2023-12-17T10:40:00.583Z,68.40
2023-12-17T10:41:34.529Z,68.40
2023-12-17T10:43:10.554Z,68.50
2023-12-17T10:44:45.650Z,68.40
2023-12-17T10:46:20.324Z,68.40
2023-12-17T10:47:57.406Z,68.30
2023-12-17T10:49:30.744Z,68.20
2023-12-17T10:51:04.868Z,68.00
2023-12-17T10:52:40.047Z,68.10
2023-12-17T10:54:13.582Z,68.00
2023-12-17T10:55:46.038Z,68.10
2023-12-17T10:57:24.666Z,68.10
2023-12-17T10:58:59.067Z,68.10
2023-12-17T11:00:37.285Z,68.10
2023-12-17T11:02:12.918Z,68.20
2023-12-17T11:03:46.982Z,68.20
2023-12-17T11:05:19.629Z,68.20
2023-12-17T11:06:53.763Z,68.20
2023-12-17T11:08:27.174Z,68.20
2023-12-17T11:10:00.722Z,68.20
2023-12-17T11:11:34.173Z,68.10
2023-12-17T11:13:06.585Z,68.10
2023-12-17T11:14:43.441Z,68.10
2023-12-17T11:16:22.909Z,68.10
2023-12-17T11:17:56.914Z,68.10
2023-12-17T11:19:29.386Z,68.30
2023-12-17T11:21:02.580Z,68.20
2023-12-17T11:22:37.221Z,68.20
2023-12-17T11:24:10.767Z,68.20
2023-12-17T11:25:43.019Z,68.00
2023-12-17T11:27:16.490Z,68.10
2023-12-17T11:28:49.822Z,68.10
2023-12-17T11:30:32.648Z,68.10
2023-12-17T11:32:06.707Z,68.00
2023-12-17T11:33:44.085Z,68.00
2023-12-17T11:35:17.411Z,67.90
2023-12-17T11:36:52.347Z,67.80
2023-12-17T11:38:25.688Z,67.70
2023-12-17T11:39:58.044Z,67.70
2023-12-17T11:41:31.128Z,67.70
2023-12-17T11:43:06.412Z,67.70
2023-12-17T11:44:44.999Z,67.70
2023-12-17T11:46:19.713Z,67.80
2023-12-17T11:47:52.352Z,67.70
2023-12-17T11:49:27.364Z,67.70
2023-12-17T11:51:00.023Z,67.80
2023-12-17T11:52:33.232Z,67.80
2023-12-17T11:54:05.969Z,67.80
2023-12-17T11:55:47.208Z,67.80
2023-12-17T11:57:24.463Z,67.80
2023-12-17T11:58:57.607Z,67.70
2023-12-17T12:00:29.898Z,67.60
2023-12-17T12:02:05.205Z,67.60
2023-12-17T12:03:40.439Z,67.80
2023-12-17T12:05:16.757Z,67.80
2023-12-17T12:06:54.666Z,67.90
2023-12-17T12:08:27.540Z,67.90
2023-12-17T12:10:09.406Z,67.90
2023-12-17T12:11:41.563Z,67.90
2023-12-17T12:13:16.013Z,67.80
2023-12-17T12:14:50.670Z,67.70
2023-12-17T12:16:24.263Z,67.80
2023-12-17T12:17:58.511Z,67.70
2023-12-17T12:19:32.590Z,67.60
2023-12-17T12:21:17.604Z,67.50
2023-12-17T12:22:51.334Z,67.60
2023-12-17T12:24:25.622Z,67.60
2023-12-17T12:25:59.557Z,67.60
2023-12-17T12:27:33.126Z,67.60
2023-12-17T12:29:09.001Z,67.70
2023-12-17T12:30:41.456Z,67.70
2023-12-17T12:32:27.511Z,67.60
2023-12-17T12:34:05.866Z,67.60
2023-12-17T12:35:39.167Z,67.60
2023-12-17T12:37:12.336Z,67.60
2023-12-17T12:38:44.507Z,67.60
2023-12-17T12:40:18.624Z,67.60
2023-12-17T12:41:51.200Z,67.50
2023-12-17T12:43:25.901Z,67.60
2023-12-17T12:44:58.394Z,67.60
2023-12-17T12:46:31.565Z,67.50
2023-12-17T12:48:04.611Z,67.50
2023-12-17T12:49:39.279Z,67.60
2023-12-17T12:51:12.498Z,67.50
2023-12-17T12:52:45.697Z,67.50
2023-12-17T12:54:19.511Z,67.50
2023-12-17T12:55:51.781Z,67.50
2023-12-17T12:57:25.728Z,67.50
2023-12-17T12:58:59.133Z,67.40
2023-12-17T13:00:31.493Z,67.40
2023-12-17T13:02:05.003Z,67.30
2023-12-17T13:03:37.326Z,67.30
2023-12-17T13:05:11.856Z,67.20
2023-12-17T13:06:44.077Z,67.20
2023-12-17T13:08:21.169Z,67.20
2023-12-17T13:10:01.042Z,67.10
2023-12-17T13:11:41.178Z,67.10
2023-12-17T13:13:13.741Z,67.10
2023-12-17T13:14:46.876Z,67.30
2023-12-17T13:16:20.305Z,67.10
2023-12-17T13:17:52.727Z,67.10
2023-12-17T13:19:26.542Z,67.10
2023-12-17T13:21:01.157Z,67.00
2023-12-17T13:22:33.858Z,67.00
2023-12-17T13:24:07.848Z,67.00
2023-12-17T13:25:46.523Z,67.10
2023-12-17T13:27:23.743Z,67.00
2023-12-17T13:28:56.935Z,67.00
2023-12-17T13:30:33.410Z,67.00
2023-12-17T13:32:08.581Z,67.00
2023-12-17T13:33:40.906Z,67.10
2023-12-17T13:35:14.524Z,67.00
2023-12-17T13:36:48.216Z,66.90
2023-12-17T13:38:21.451Z,67.00
2023-12-17T13:39:53.962Z,66.90
2023-12-17T13:41:28.292Z,66.90
2023-12-17T13:43:01.456Z,66.80
2023-12-17T13:44:33.718Z,66.70
2023-12-17T13:46:07.915Z,66.70
2023-12-17T13:47:40.119Z,66.80
2023-12-17T13:49:13.488Z,66.60
2023-12-17T13:50:46.367Z,66.30
2023-12-17T13:52:22.554Z,66.50
2023-12-17T13:53:54.761Z,66.30
2023-12-17T13:55:30.726Z,66.40
2023-12-17T13:57:04.118Z,66.40
2023-12-17T13:58:37.506Z,66.40
2023-12-17T14:00:11.041Z,66.40
2023-12-17T14:01:44.549Z,66.40
2023-12-17T14:03:18.014Z,66.30
2023-12-17T14:04:50.510Z,66.40
2023-12-17T14:06:25.467Z,66.40
2023-12-17T14:07:59.525Z,66.30
2023-12-17T14:09:32.735Z,66.40
2023-12-17T14:11:05.332Z,66.30
2023-12-17T14:12:39.401Z,66.30
2023-12-17T14:14:11.947Z,66.30
2023-12-17T14:15:45.345Z,66.30
2023-12-17T14:17:18.389Z,66.30
2023-12-17T14:18:52.065Z,66.20
2023-12-17T14:20:26.018Z,66.20
2023-12-17T14:21:59.664Z,66.10
2023-12-17T14:23:34.147Z,66.10
2023-12-17T14:25:09.778Z,66.10
2023-12-17T14:26:41.981Z,66.10
2023-12-17T14:28:15.136Z,66.00
2023-12-17T14:29:47.839Z,66.00
2023-12-17T14:31:21.198Z,66.00
2023-12-17T14:32:53.428Z,66.00
2023-12-17T14:34:26.936Z,66.00
2023-12-17T14:35:59.470Z,65.90
2023-12-17T14:37:33.301Z,65.70
2023-12-17T14:39:07.263Z,65.90
2023-12-17T14:40:40.529Z,65.80
2023-12-17T14:42:12.744Z,65.90
2023-12-17T14:43:46.119Z,65.80
2023-12-17T14:45:19.129Z,65.80
2023-12-17T14:46:52.778Z,65.90
2023-12-17T14:48:25.429Z,65.80
2023-12-17T14:49:58.984Z,65.70
2023-12-17T14:51:32.634Z,65.70
2023-12-17T14:53:06.471Z,65.70
2023-12-17T14:54:42.282Z,65.60
2023-12-17T14:56:14.471Z,65.70
2023-12-17T14:57:48.271Z,65.70
2023-12-17T14:59:21.185Z,65.70
2023-12-17T15:00:54.403Z,65.70
2023-12-17T15:02:28.818Z,65.90
2023-12-17T15:04:02.039Z,65.90
2023-12-17T15:05:34.359Z,65.80
2023-12-17T15:07:07.537Z,65.70
2023-12-17T15:08:39.752Z,65.80
2023-12-17T15:10:14.543Z,65.80
2023-12-17T15:11:47.001Z,65.90
2023-12-17T15:13:20.145Z,65.70
2023-12-17T15:14:53.507Z,65.70
2023-12-17T15:16:29.547Z,65.70
2023-12-17T15:18:02.110Z,65.70
2023-12-17T15:19:37.106Z,65.80
2023-12-17T15:21:14.390Z,65.70
2023-12-17T15:22:48.051Z,65.70
2023-12-17T15:24:20.329Z,65.80
2023-12-17T15:25:55.060Z,65.70
2023-12-17T15:27:28.302Z,65.60
2023-12-17T15:29:01.569Z,65.60
2023-12-17T15:30:34.015Z,65.50
2023-12-17T15:32:08.549Z,65.50
2023-12-17T15:33:41.154Z,65.60
2023-12-17T15:35:15.310Z,65.40
2023-12-17T15:36:47.519Z,65.50
2023-12-17T15:38:22.062Z,65.50
2023-12-17T15:39:54.223Z,65.50
2023-12-17T15:41:28.763Z,65.40
2023-12-17T15:43:01.232Z,65.50
2023-12-17T15:44:34.386Z,65.40
2023-12-17T15:46:06.513Z,65.40
2023-12-17T15:47:39.794Z,65.20
2023-12-17T15:49:12.318Z,65.10
2023-12-17T15:50:45.543Z,65.20
2023-12-17T15:52:17.946Z,65.20
2023-12-17T15:53:53.621Z,65.10
2023-12-17T15:55:26.649Z,65.10
2023-12-17T15:57:01.377Z,65.00
2023-12-17T15:58:33.897Z,64.80
2023-12-17T16:00:09.254Z,64.80
2023-12-17T16:01:43.120Z,64.70
2023-12-17T16:03:15.679Z,64.50
2023-12-17T16:04:49.210Z,64.50
2023-12-17T16:06:22.920Z,64.40
2023-12-17T16:07:56.159Z,64.40
2023-12-17T16:09:29.441Z,64.50
2023-12-17T16:11:01.636Z,64.50
2023-12-17T16:12:36.222Z,64.60
2023-12-17T16:14:08.656Z,64.50
2023-12-17T16:15:41.852Z,65.30
2023-12-17T16:17:14.046Z,64.30
2023-12-17T16:18:47.292Z,64.40
2023-12-17T16:20:19.657Z,64.40
2023-12-17T16:21:53.319Z,64.50
2023-12-17T16:23:27.012Z,64.80
2023-12-17T16:25:00.426Z,64.80
2023-12-17T16:26:32.861Z,64.90
2023-12-17T16:28:08.042Z,64.90
2023-12-17T16:29:41.046Z,64.80
2023-12-17T16:31:14.578Z,65.10
2023-12-17T16:32:47.078Z,65.10
2023-12-17T16:34:20.350Z,65.10
2023-12-17T16:35:54.129Z,65.10
2023-12-17T16:37:27.247Z,65.30
2023-12-17T16:38:59.682Z,65.30
2023-12-17T16:40:32.858Z,65.40
2023-12-17T16:42:05.774Z,65.40
2023-12-17T16:43:42.257Z,66.70
2023-12-17T16:45:15.940Z,66.70
2023-12-17T16:46:49.038Z,66.70
2023-12-17T16:48:22.078Z,66.60
2023-12-17T16:49:55.932Z,66.60
2023-12-17T16:51:28.671Z,66.50
2023-12-17T16:53:02.001Z,66.50
2023-12-17T16:54:34.353Z,66.50
2023-12-17T16:56:08.735Z,66.50
2023-12-17T16:57:41.926Z,66.50
2023-12-17T16:59:15.459Z,66.40
2023-12-17T17:00:49.134Z,66.30
2023-12-17T17:02:21.500Z,66.20
2023-12-17T17:03:55.017Z,66.20
2023-12-17T17:05:27.606Z,66.20
2023-12-17T17:07:01.165Z,66.10
2023-12-17T17:08:34.157Z,66.00
2023-12-17T17:10:09.672Z,66.00
2023-12-17T17:11:42.073Z,66.10
2023-12-17T17:13:15.342Z,66.70
2023-12-17T17:14:48.910Z,66.00
2023-12-17T17:16:22.678Z,65.90
2023-12-17T17:17:54.992Z,65.70
2023-12-17T17:19:28.661Z,65.80
2023-12-17T17:21:01.125Z,65.70
2023-12-17T17:22:34.325Z,65.60
2023-12-17T17:24:06.970Z,65.50
2023-12-17T17:25:41.109Z,65.60
2023-12-17T17:27:14.479Z,65.70
2023-12-17T17:28:48.266Z,65.60
2023-12-17T17:30:22.172Z,65.60
2023-12-17T17:31:56.057Z,65.70
2023-12-17T17:33:29.441Z,65.60
2023-12-17T17:35:01.874Z,65.60
2023-12-17T17:36:35.454Z,65.90
2023-12-17T17:38:07.642Z,65.70
2023-12-17T17:39:41.366Z,65.90
2023-12-17T17:41:15.395Z,65.90
2023-12-17T17:42:48.533Z,66.00
2023-12-17T17:44:21.802Z,65.90
2023-12-17T17:45:56.285Z,66.20
2023-12-17T17:47:30.083Z,66.30
2023-12-17T17:49:03.829Z,66.20
2023-12-17T17:50:37.436Z,66.20
2023-12-17T17:52:09.707Z,66.30
2023-12-17T17:53:43.755Z,66.40
2023-12-17T17:55:16.003Z,67.40
2023-12-17T17:56:50.067Z,66.70
2023-12-17T17:58:22.593Z,66.70
2023-12-17T17:59:55.859Z,66.80
2023-12-17T18:01:29.484Z,66.90
2023-12-17T18:03:03.816Z,67.10
2023-12-17T18:04:36.442Z,67.30
2023-12-17T18:06:10.268Z,67.50
2023-12-17T18:07:42.972Z,67.50
2023-12-17T18:09:16.555Z,67.40
2023-12-17T18:10:49.472Z,67.40
2023-12-17T18:12:22.955Z,67.20
2023-12-17T18:13:55.712Z,67.10
2023-12-17T18:15:29.673Z,67.00
2023-12-17T18:17:04.415Z,66.90
2023-12-17T18:18:36.801Z,66.90
2023-12-17T18:20:13.312Z,66.90
2023-12-17T18:21:48.559Z,66.90
2023-12-17T18:23:21.674Z,66.70
2023-12-17T18:24:55.002Z,66.90
2023-12-17T18:26:27.418Z,66.80
2023-12-17T18:28:01.825Z,66.90
2023-12-17T18:29:35.664Z,66.80
2023-12-17T18:31:08.940Z,66.90
2023-12-17T18:32:42.835Z,67.00
2023-12-17T18:34:16.272Z,67.10
2023-12-17T18:35:48.491Z,67.10
2023-12-17T18:37:23.311Z,67.10
2023-12-17T18:38:55.575Z,67.10
2023-12-17T18:40:28.697Z,67.10
2023-12-17T18:42:01.166Z,67.10
2023-12-17T18:43:34.315Z,67.10
2023-12-17T18:45:08.668Z,67.10
2023-12-17T18:46:42.013Z,67.20
2023-12-17T18:48:15.801Z,67.20
2023-12-17T18:49:49.672Z,67.20
2023-12-17T18:51:22.954Z,67.10
2023-12-17T18:52:55.468Z,67.20
2023-12-17T18:54:28.981Z,67.20
2023-12-17T18:56:01.368Z,67.30
2023-12-17T18:57:34.876Z,67.40
2023-12-17T18:59:08.279Z,67.30
2023-12-17T19:00:41.977Z,67.30
2023-12-17T19:02:15.188Z,67.30
2023-12-17T19:03:50.004Z,67.30
2023-12-17T19:05:22.179Z,67.30
2023-12-17T19:06:55.540Z,67.40
2023-12-17T19:08:28.241Z,67.30
2023-12-17T19:10:01.815Z,67.20
2023-12-17T19:11:35.879Z,67.30
2023-12-17T19:13:09.271Z,67.50
2023-12-17T19:14:42.205Z,67.60
2023-12-17T19:16:15.515Z,67.60
2023-12-17T19:17:47.745Z,67.60
2023-12-17T19:19:22.246Z,67.70
2023-12-17T19:20:54.599Z,67.90
2023-12-17T19:22:27.781Z,68.00
2023-12-17T19:23:59.952Z,68.10
2023-12-17T19:25:33.306Z,68.10
2023-12-17T19:27:06.936Z,67.90
2023-12-17T19:28:39.760Z,68.00
2023-12-17T19:30:13.851Z,68.10
2023-12-17T19:31:47.661Z,68.20
2023-12-17T19:33:22.600Z,68.20
2023-12-17T19:34:56.342Z,68.10
2023-12-17T19:36:30.217Z,68.30
2023-12-17T19:38:02.419Z,68.10
2023-12-17T19:39:35.708Z,68.00
2023-12-17T19:41:08.859Z,67.90
2023-12-17T19:42:42.880Z,67.90
2023-12-17T19:44:15.246Z,68.00
2023-12-17T19:45:48.451Z,68.10
2023-12-17T19:47:21.225Z,68.00
2023-12-17T19:48:54.552Z,68.00
2023-12-17T19:50:30.178Z,68.00
2023-12-17T19:52:03.835Z,67.90
2023-12-17T19:53:38.079Z,68.20
2023-12-17T19:55:10.233Z,68.20
2023-12-17T19:56:43.983Z,68.30
2023-12-17T19:58:17.254Z,68.30
2023-12-17T19:59:50.509Z,68.20
2023-12-17T20:01:25.444Z,68.30
2023-12-17T20:02:57.577Z,68.40
2023-12-17T20:04:30.827Z,68.50
2023-12-17T20:06:04.828Z,68.40
2023-12-17T20:07:38.182Z,68.50
2023-12-17T20:09:10.480Z,68.30